CST,Max TemperatureF,Mean TemperatureF,Min TemperatureF,Max Dew PointF,MeanDew PointF,Min DewpointF,Max Humidity, Mean Humidity, Min Humidity, Max Sea Level PressureIn, Mean Sea Level PressureIn, Min Sea Level PressureIn, Max VisibilityMiles, Mean VisibilityMiles, Min VisibilityMiles, Max Wind SpeedMPH, Mean Wind SpeedMPH, Max Gust SpeedMPH,PrecipitationIn, CloudCover, Events, WindDirDegrees
2013-11-1,44,40,36,41,38,34,92,87,82,29.75,29.55,29.33,10,9,4,16,9,22,0.00,7,Rain,282
2013-11-2,44,37,28,35,33,28,96,83,63,30.14,29.96,29.75,10,9,3,13,4,17,0.00,6,Rain,312
2013-11-3,49,36,24,36,30,23,98,76,49,30.26,30.19,30.14,10,9,1,17,4,22,0.00,0,,150
2013-11-4,50,46,42,43,37,32,82,69,59,30.16,30.08,30.00,10,10,10,22,14,30,0.00,4,,185
2013-11-5,52,43,34,50,44,34,97,90,77,30.24,30.09,29.80,10,5,0,16,4,24,0.72,7,Fog-Rain,113
2013-11-6,53,42,30,52,33,18,95,77,42,30.14,29.93,29.71,10,8,2,17,11,24,0.13,5,Rain,295
2013-11-7,38,32,26,29,26,23,94,79,64,30.22,30.17,30.15,10,10,5,12,5,,0.00,5,,272
2013-11-8,44,33,22,33,28,21,96,75,54,30.24,30.09,29.74,10,8,2,17,5,25,0.00,3,Rain,178
2013-11-9,48,42,36,37,32,23,75,63,52,30.08,29.85,29.70,10,10,10,25,14,33,0.00,7,,264
2013-11-10,46,41,36,29,27,24,68,59,46,30.31,30.21,30.09,10,10,10,16,10,22,0.00,5,,267
2013-11-11,41,30,20,32,22,11,98,71,57,30.57,30.27,30.04,10,8,1,16,8,21,0.01,5,Rain-Snow,321
2013-11-12,27,20,14,13,11,8,76,66,51,30.71,30.62,30.52,10,10,10,10,7,16,0.00,0,,284
2013-11-13,41,30,18,20,14,11,77,52,37,30.52,30.23,30.00,10,10,10,22,11,29,0.00,0,,227
2013-11-14,47,40,32,28,23,15,61,53,44,29.99,29.89,29.84,10,10,10,20,12,25,0.00,2,,229
2013-11-15,53,42,31,35,31,27,83,66,49,29.90,29.86,29.83,10,10,10,12,6,16,0.00,0,,215
2013-11-16,58,48,37,53,44,32,96,88,79,29.83,29.59,29.40,10,6,1,29,12,36,0.36,6,Rain-Thunderstorm,182
2013-11-17,57,48,37,53,44,30,95,84,70,29.67,29.40,29.20,10,9,0,25,11,34,0.46,8,Rain-Thunderstorm,265
2013-11-18,37,30,23,30,23,19,83,71,60,30.24,29.99,29.68,10,10,10,23,15,34,0.00,6,,297
2013-11-19,39,28,18,28,22,16,93,75,52,30.32,30.26,30.17,10,10,10,20,4,23,0.00,0,,162
2013-11-20,38,36,33,34,29,25,95,77,59,30.18,30.11,30.06,10,8,2,21,13,28,0.00,7,Rain,165
2013-11-21,39,36,33,36,35,32,95,90,83,30.27,30.16,30.08,10,4,2,12,3,18,0.00,8,Rain,331
2013-11-22,33,28,24,31,19,10,96,69,44,30.49,30.41,30.27,10,8,1,13,9,21,0.00,4,Rain-Snow,305
2013-11-23,25,16,8,14,3,-3,73,59,40,30.70,30.61,30.40,10,10,10,18,11,26,0.00,2,Snow,319
2013-11-24,25,15,5,5,2,-2,83,56,31,30.67,30.47,30.18,10,10,10,23,6,30,0.00,0,,221
2013-11-25,32,27,22,25,18,3,87,71,38,30.17,30.02,29.96,10,9,1,23,14,30,0.00,7,Snow,232
2013-11-26,32,22,12,25,12,1,81,61,41,30.22,30.08,29.98,10,10,1,17,9,26,0.00,5,Snow,312
2013-11-27,26,18,10,14,7,1,81,63,43,30.27,30.21,30.15,10,10,10,12,7,18,0.00,2,,309
2013-11-28,30,24,19,15,12,9,79,59,46,30.48,30.24,30.10,10,10,10,14,6,18,0.00,7,Snow,278
2013-11-29,30,20,10,19,14,7,89,71,52,30.58,30.47,30.28,10,10,10,16,4,18,0.00,0,,172
2013-11-30,43,36,28,28,24,19,84,67,51,30.27,30.09,29.99,10,10,10,15,9,25,0.00,2,,210